地図

経路データ

SID SEASON NUMBER BASIN SUBBASIN NAME ISO_TIME NATURE LAT LON WMO_WIND WMO_PRES WMO_AGENCY TRACK_TYPE DIST2LAND LANDFALL IFLAG USA_AGENCY USA_ATCF_ID USA_LAT USA_LON USA_RECORD USA_STATUS USA_WIND USA_PRES USA_SSHS USA_R34_NE USA_R34_SE USA_R34_SW USA_R34_NW USA_R50_NE USA_R50_SE USA_R50_SW USA_R50_NW USA_R64_NE USA_R64_SE USA_R64_SW USA_R64_NW USA_POCI USA_ROCI USA_RMW USA_EYE TOKYO_LAT TOKYO_LON TOKYO_GRADE TOKYO_WIND TOKYO_PRES TOKYO_R50_DIR TOKYO_R50_LONG TOKYO_R50_SHORT TOKYO_R30_DIR TOKYO_R30_LONG TOKYO_R30_SHORT TOKYO_LAND CMA_LAT CMA_LON CMA_CAT CMA_WIND CMA_PRES HKO_LAT HKO_LON HKO_CAT HKO_WIND HKO_PRES NEWDELHI_LAT NEWDELHI_LON NEWDELHI_GRADE NEWDELHI_WIND NEWDELHI_PRES NEWDELHI_CI NEWDELHI_DP NEWDELHI_POCI REUNION_LAT REUNION_LON REUNION_TYPE REUNION_WIND REUNION_PRES REUNION_TNUM REUNION_CI REUNION_RMW REUNION_R34_NE REUNION_R34_SE REUNION_R34_SW REUNION_R34_NW REUNION_R50_NE REUNION_R50_SE REUNION_R50_SW REUNION_R50_NW REUNION_R64_NE REUNION_R64_SE REUNION_R64_SW REUNION_R64_NW BOM_LAT BOM_LON BOM_TYPE BOM_WIND BOM_PRES BOM_TNUM BOM_CI BOM_RMW BOM_R34_NE BOM_R34_SE BOM_R34_SW BOM_R34_NW BOM_R50_NE BOM_R50_SE BOM_R50_SW BOM_R50_NW BOM_R64_NE BOM_R64_SE BOM_R64_SW BOM_R64_NW BOM_ROCI BOM_POCI BOM_EYE BOM_POS_METHOD BOM_PRES_METHOD NADI_LAT NADI_LON NADI_CAT NADI_WIND NADI_PRES WELLINGTON_LAT WELLINGTON_LON WELLINGTON_WIND WELLINGTON_PRES DS824_LAT DS824_LON DS824_STAGE DS824_WIND DS824_PRES TD9636_LAT TD9636_LON TD9636_STAGE TD9636_WIND TD9636_PRES TD9635_LAT TD9635_LON TD9635_WIND TD9635_PRES TD9635_ROCI NEUMANN_LAT NEUMANN_LON NEUMANN_CLASS NEUMANN_WIND NEUMANN_PRES MLC_LAT MLC_LON MLC_CLASS MLC_WIND MLC_PRES USA_GUST BOM_GUST BOM_GUST_PER REUNION_GUST REUNION_GUST_PER USA_SEAHGT USA_SEARAD_NE USA_SEARAD_SE USA_SEARAD_SW USA_SEARAD_NW STORM_SPEED STORM_DIR
1916108N11128 1916 17 WP MM NOT_NAMED 1916-04-17 10:00:00 NR 10.8000 128.100 main 252 229 __________O___ -1 10.8000 128.100 4 8 297
1916108N11128 1916 17 WP MM NOT_NAMED 1916-04-17 12:00:00 NR 10.9137 127.871 main 229 186 __________P___ -1 10.9137 127.871 4 8 297
1916108N11128 1916 17 WP MM NOT_NAMED 1916-04-17 15:00:00 NR 11.0852 127.531 main 186 154 __________P___ -1 11.0852 127.531 4 7 298
1916108N11128 1916 17 WP MM NOT_NAMED 1916-04-17 18:00:00 NR 11.2595 127.204 main 156 128 __________P___ -1 11.2595 127.204 4 7 300
1916108N11128 1916 17 WP MM NOT_NAMED 1916-04-17 21:00:00 NR 11.4388 126.897 main 128 122 __________P___ -1 11.4388 126.897 4 7 301
1916108N11128 1916 17 WP MM NOT_NAMED 1916-04-17 22:00:00 NR 11.5000 126.800 main 122 110 __________O___ -1 11.5000 126.800 4 7 304
1916108N11128 1916 17 WP MM NOT_NAMED 1916-04-18 00:00:00 NR 11.6254 126.617 main 110 98 __________P___ -1 11.6254 126.617 4 6 308
1916108N11128 1916 17 WP MM NOT_NAMED 1916-04-18 03:00:00 NR 11.8259 126.367 main 98 69 __________P___ -1 11.8259 126.367 4 6 313
1916108N11128 1916 17 WP MM NOT_NAMED 1916-04-18 06:00:00 NR 12.0496 126.147 main 69 54 __________P___ -1 12.0496 126.147 4 6 320
1916108N11128 1916 17 WP MM NOT_NAMED 1916-04-18 09:00:00 NR 12.3058 125.957 main 55 44 __________P___ -1 12.3058 125.957 4 6 326
1916108N11128 1916 17 WP MM NOT_NAMED 1916-04-18 10:00:00 NR 12.4000 125.900 main 48 46 __________O___ -1 12.4000 125.900 4 7 326
1916108N11128 1916 17 WP MM NOT_NAMED 1916-04-18 12:00:00 NR 12.5942 125.752 main 55 48 __________P___ -1 12.5942 125.752 4 7 327
1916108N11128 1916 17 WP MM NOT_NAMED 1916-04-18 15:00:00 NR 12.9169 125.555 main 62 55 __________P___ -1 12.9169 125.555 4 8 334
1916108N11128 1916 17 WP MM NOT_NAMED 1916-04-18 18:00:00 NR 13.2744 125.420 main 92 92 __________P___ -1 13.2744 125.420 4 8 347
1916108N11128 1916 17 WP MM NOT_NAMED 1916-04-18 21:00:00 NR 13.6637 125.383 main 108 108 __________P___ -1 13.6637 125.383 4 8 0
1916108N11128 1916 17 WP MM NOT_NAMED 1916-04-18 22:00:00 NR 13.8000 125.400 main 108 107 __________O___ -1 13.8000 125.400 4 9 13
1916108N11128 1916 17 WP MM NOT_NAMED 1916-04-19 00:00:00 NR 14.0929 125.484 main 120 120 __________P___ -1 14.0929 125.484 4 10 22
1916108N11128 1916 17 WP MM NOT_NAMED 1916-04-19 03:00:00 NR 14.5579 125.710 main 160 160 __________P___ -1 14.5579 125.710 4 11 29
1916108N11128 1916 17 WP MM NOT_NAMED 1916-04-19 06:00:00 NR 15.0258 126.022 main 211 218 __________P___ -1 15.0258 126.022 4 11 35
1916108N11128 1916 17 WP MM NOT_NAMED 1916-04-19 09:00:00 NR 15.4652 126.378 main 279 279 __________P___ -1 15.4652 126.378 4 11 39
1916108N11128 1916 17 WP MM NOT_NAMED 1916-04-19 10:00:00 NR 15.6000 126.500 main 295 295 __________O___ -1 15.6000 126.500 4 10 42
1916108N11128 1916 17 WP MM NOT_NAMED 1916-04-19 12:00:00 NR 15.8476 126.740 main 326 341 __________P___ -1 15.8476 126.740 4 10 45
1916108N11128 1916 17 WP MM NOT_NAMED 1916-04-19 15:00:00 NR 16.1720 127.094 main 387 387 __________P___ -1 16.1720 127.094 4 9 48
1916108N11128 1916 17 WP MM NOT_NAMED 1916-04-19 18:00:00 NR 16.4556 127.441 main 434 442 __________P___ -1 16.4556 127.441 4 9 51
1916108N11128 1916 17 WP MM NOT_NAMED 1916-04-19 21:00:00 NR 16.7156 127.785 main 480 480 __________P___ -1 16.7156 127.785 4 8 52
1916108N11128 1916 17 WP MM NOT_NAMED 1916-04-19 22:00:00 NR 16.8000 127.900 main 496 __________O___ -1 16.8000 127.900 4 8 54

デジタル台風データ・検索

IBTrACS Databaseについて

本データベースは、米国NOAAが公開する1842年以降の世界の熱帯低気圧のベストトラックデータアーカイブInternational Best Track Archive for Climate Stewardship (IBTrACS)を、ウェブで閲覧しやすい形式に変換したものです。

最終更新日:2021-10-25